This is the latest recevied weather packets stored in our database for station/object NG7M. If no packets are shown the sender has not sent any weather packets the latest 10 day(s).
| Time | Temp. | Humidity | Pressure | Rain* | Wind** | Luminosity | Snow |
|---|---|---|---|---|---|---|---|
| 1777801504 | 12.78° C | 34% | 1015.4 hPa | 0 mm | - | - | - |
| 1777801203 | 12.78° C | 34% | 1015.4 hPa | 0 mm | - | - | - |
| 1777800603 | 12.78° C | 33% | 1015.4 hPa | 0 mm | - | - | - |
| 1777799704 | 12.78° C | 35% | 1015.4 hPa | 0 mm | - | - | - |
| 1777798803 | 12.78° C | 37% | 1015.5 hPa | 0 mm | - | - | - |
| 1777798204 | 12.78° C | 37% | 1015.5 hPa | 0 mm | - | - | - |
| 1777796404 | 12.78° C | 38% | 1015.5 hPa | 0 mm | - | - | - |
| 1777794903 | 13.33° C | 36% | 1015.5 hPa | 0 mm | - | - | - |
| 1777794603 | 13.33° C | 34% | 1015.5 hPa | 0 mm | - | - | - |
| 1777794304 | 13.33° C | 30% | 1015.5 hPa | 0 mm | - | - | - |
| 1777792804 | 13.33° C | 29% | 1015.4 hPa | 0 mm | - | - | - |
| 1777789505 | 12.78° C | 32% | 1015.3 hPa | 0 mm | - | - | - |
| 1777782903 | 16.67° C | 22% | 1015.5 hPa | 0 mm | - | - | - |
| 1777779904 | 17.78° C | 22% | 1015.5 hPa | 0 mm | - | - | - |
| 1777779603 | 17.78° C | 21% | 1015.3 hPa | 0 mm | - | - | - |
| 1777778704 | 18.33° C | 20% | 1015.3 hPa | 0 mm | - | - | - |
| 1777774803 | 20° C | 18% | 1015.1 hPa | 0 mm | - | - | - |
| 1777773604 | 21.11° C | 17% | 1015.2 hPa | 0 mm | - | - | - |
| 1777773004 | 21.11° C | 16% | 1015.2 hPa | 0 mm | - | - | - |
| 1777772404 | 21.67° C | 15% | 1015.3 hPa | 0 mm | - | - | - |
| 1777770904 | 21.67° C | 15% | 1015.3 hPa | 0 mm | - | - | - |
| 1777768204 | 22.78° C | 14% | 1015.6 hPa | 0 mm | - | - | - |
| 1777767604 | 22.78° C | 13% | 1015.6 hPa | 0 mm | - | - | - |
| 1777766703 | 22.78° C | 13% | 1015.6 hPa | 0 mm | - | - | - |
| 1777764603 | 23.33° C | 13% | 1015.8 hPa | 0 mm | - | - | - |
* Rain latest hour (hover to see other rain measurements)
** Current wind speed in m/s (hover to see current wind gust speed)